createdAt,value
2022-10-05T00:01:33.334Z,11.26
2022-10-05T00:04:15.700Z,11.21
2022-10-05T00:06:46.666Z,11.12
2022-10-05T00:09:19.252Z,11.27
2022-10-05T00:11:48.897Z,11.31
2022-10-05T00:14:20.184Z,11.27
2022-10-05T00:16:50.469Z,11.34
2022-10-05T00:19:27.309Z,11.28
2022-10-05T00:21:59.682Z,11.26
2022-10-05T00:24:27.914Z,11.29
2022-10-05T00:26:58.190Z,11.11
2022-10-05T00:29:27.116Z,10.82
2022-10-05T00:31:57.098Z,10.88
2022-10-05T00:34:27.217Z,10.90
2022-10-05T00:36:55.713Z,10.85
2022-10-05T00:39:24.230Z,11.00
2022-10-05T00:42:12.688Z,10.97
2022-10-05T00:44:51.437Z,10.94
2022-10-05T00:47:36.813Z,10.93
2022-10-05T00:50:35.230Z,10.97
2022-10-05T00:53:12.966Z,10.85
2022-10-05T00:55:55.520Z,10.76
2022-10-05T00:58:43.597Z,10.65
2022-10-05T01:01:16.792Z,10.60
2022-10-05T01:04:00.915Z,10.61
2022-10-05T01:06:39.781Z,10.70
2022-10-05T01:09:18.337Z,10.77
2022-10-05T01:11:58.483Z,10.86
2022-10-05T01:14:33.813Z,10.79
2022-10-05T01:17:10.422Z,10.80
2022-10-05T01:20:07.976Z,10.85
2022-10-05T01:22:56.913Z,10.92
2022-10-05T01:25:31.466Z,10.90
2022-10-05T01:28:06.196Z,10.95
2022-10-05T01:30:44.217Z,11.01
2022-10-05T01:33:23.516Z,11.02
2022-10-05T01:36:01.409Z,11.06
2022-10-05T01:38:45.286Z,11.01
2022-10-05T01:41:30.722Z,11.06
2022-10-05T01:44:04.817Z,11.05
2022-10-05T01:46:42.706Z,11.08
2022-10-05T01:49:29.865Z,11.03
2022-10-05T01:52:17.893Z,11.07
2022-10-05T01:55:15.393Z,11.00
2022-10-05T01:57:57.900Z,11.06
2022-10-05T02:00:29.625Z,11.11
2022-10-05T02:03:04.361Z,10.98
2022-10-05T02:05:40.879Z,11.02
2022-10-05T02:08:16.166Z,11.02
2022-10-05T02:10:52.150Z,11.03
2022-10-05T02:13:28.360Z,10.92
2022-10-05T02:16:02.692Z,11.00
2022-10-05T02:18:35.511Z,10.87
2022-10-05T02:21:06.973Z,10.84
2022-10-05T02:23:40.569Z,10.85
2022-10-05T02:26:12.453Z,10.79
2022-10-05T02:28:48.816Z,10.74
2022-10-05T02:31:26.851Z,10.84
2022-10-05T02:34:23.758Z,10.83
2022-10-05T02:37:12.195Z,10.94
2022-10-05T02:39:52.121Z,10.84
2022-10-05T02:42:31.975Z,10.84
2022-10-05T02:45:14.126Z,10.90
2022-10-05T02:47:55.006Z,10.96
2022-10-05T02:50:33.588Z,11.01
2022-10-05T02:53:16.150Z,11.28
2022-10-05T02:55:54.802Z,11.49
2022-10-05T02:58:28.479Z,11.70
2022-10-05T03:01:08.147Z,11.82
2022-10-05T03:03:46.606Z,12.01
2022-10-05T03:06:22.753Z,12.14
2022-10-05T03:09:02.516Z,12.19
2022-10-05T03:11:44.439Z,12.35
2022-10-05T03:14:20.185Z,12.41
2022-10-05T03:17:00.310Z,12.54
2022-10-05T03:20:05.692Z,12.58
2022-10-05T03:22:49.578Z,12.65
2022-10-05T03:25:51.287Z,12.69
2022-10-05T03:28:25.526Z,12.72
2022-10-05T03:31:02.339Z,12.74
2022-10-05T03:33:48.000Z,12.74
2022-10-05T03:36:28.862Z,12.68
2022-10-05T03:39:04.604Z,12.71
2022-10-05T03:41:41.388Z,12.66
2022-10-05T03:44:37.694Z,12.66
2022-10-05T03:47:15.793Z,12.72
2022-10-05T03:50:03.235Z,12.53
2022-10-05T03:52:41.054Z,12.70
2022-10-05T03:55:20.719Z,12.74
2022-10-05T03:57:53.068Z,12.78
2022-10-05T04:00:25.533Z,12.69
2022-10-05T04:03:06.428Z,12.59
2022-10-05T04:05:43.311Z,12.57
2022-10-05T04:08:25.254Z,12.51
2022-10-05T04:10:58.042Z,12.55
2022-10-05T04:13:35.649Z,12.57
2022-10-05T04:16:11.456Z,12.58
2022-10-05T04:18:46.443Z,12.56
2022-10-05T04:21:24.095Z,12.51
2022-10-05T04:24:02.496Z,12.53
2022-10-05T04:26:40.202Z,12.59
2022-10-05T04:29:17.616Z,12.57
2022-10-05T04:32:04.031Z,12.51
2022-10-05T04:34:53.675Z,12.60
2022-10-05T04:37:34.566Z,12.51
2022-10-05T04:40:24.063Z,12.55
2022-10-05T04:43:03.086Z,12.41
2022-10-05T04:45:52.759Z,12.45
2022-10-05T04:48:45.574Z,12.38
2022-10-05T04:51:35.653Z,12.39
2022-10-05T04:54:18.785Z,12.33
2022-10-05T04:56:59.482Z,12.45
2022-10-05T05:00:05.473Z,12.51
2022-10-05T05:02:56.764Z,12.42
2022-10-05T05:05:35.611Z,12.59
2022-10-05T05:08:22.209Z,12.63
2022-10-05T05:11:22.418Z,12.61
2022-10-05T05:14:21.577Z,12.60
2022-10-05T05:16:58.457Z,12.67
2022-10-05T05:19:40.486Z,12.70
2022-10-05T05:22:21.496Z,12.72
2022-10-05T05:25:06.959Z,12.78
2022-10-05T05:27:44.136Z,12.85
2022-10-05T05:30:25.722Z,12.80
2022-10-05T05:33:09.464Z,12.75
2022-10-05T05:36:12.575Z,12.91
2022-10-05T05:38:48.799Z,12.90
2022-10-05T05:41:28.170Z,12.89
2022-10-05T05:44:10.013Z,12.85
2022-10-05T05:47:02.946Z,12.94
2022-10-05T05:49:55.640Z,12.91
2022-10-05T05:52:32.020Z,12.76
2022-10-05T05:55:10.007Z,12.86
2022-10-05T05:57:44.630Z,12.87
2022-10-05T06:00:22.876Z,12.95
2022-10-05T06:03:09.569Z,13.00
2022-10-05T06:05:45.515Z,13.05
2022-10-05T06:08:21.480Z,13.01
2022-10-05T06:11:00.059Z,13.11
2022-10-05T06:13:35.544Z,13.23
2022-10-05T06:16:15.724Z,13.12
2022-10-05T06:18:52.904Z,13.24
2022-10-05T06:21:28.101Z,13.40
2022-10-05T06:24:02.098Z,13.43
2022-10-05T06:27:17.098Z,13.56
2022-10-05T06:30:13.336Z,13.57
2022-10-05T06:33:08.584Z,13.58
2022-10-05T06:35:53.765Z,13.65
2022-10-05T06:39:00.671Z,13.78
2022-10-05T06:41:46.734Z,13.86
2022-10-05T06:44:22.884Z,13.79
2022-10-05T06:47:14.418Z,13.89
2022-10-05T06:50:04.283Z,13.86
2022-10-05T06:52:50.474Z,14.05
2022-10-05T06:55:31.434Z,13.79
2022-10-05T06:58:21.811Z,13.86
2022-10-05T07:00:55.297Z,14.05
2022-10-05T07:03:36.780Z,14.09
2022-10-05T07:06:15.317Z,14.20
2022-10-05T07:09:21.968Z,14.18
2022-10-05T07:12:07.786Z,14.18
2022-10-05T07:15:00.784Z,14.39
2022-10-05T07:17:45.508Z,14.48
2022-10-05T07:20:21.749Z,14.42
2022-10-05T07:23:16.972Z,14.35
2022-10-05T07:25:54.773Z,14.30
2022-10-05T07:28:33.908Z,14.36
2022-10-05T07:31:08.655Z,14.57
2022-10-05T07:33:46.311Z,14.39
2022-10-05T07:36:50.928Z,14.60
2022-10-05T07:39:55.259Z,14.79
2022-10-05T07:42:33.259Z,14.66
2022-10-05T07:45:15.421Z,14.78
2022-10-05T07:47:54.273Z,14.95
2022-10-05T07:50:30.331Z,14.96
2022-10-05T07:53:03.945Z,15.07
2022-10-05T07:55:38.155Z,15.22
2022-10-05T07:58:20.935Z,15.25
2022-10-05T08:01:09.184Z,15.45
2022-10-05T08:03:54.077Z,15.03
2022-10-05T08:06:50.627Z,15.22
2022-10-05T08:09:37.363Z,15.00
2022-10-05T08:12:20.986Z,15.21
2022-10-05T08:14:57.996Z,15.36
2022-10-05T08:17:41.788Z,15.49
2022-10-05T08:20:31.389Z,15.68
2022-10-05T08:23:06.341Z,15.54
2022-10-05T08:25:47.034Z,15.38
2022-10-05T08:28:24.547Z,15.39
2022-10-05T08:31:10.944Z,15.40
2022-10-05T08:33:56.292Z,15.52
2022-10-05T08:36:44.817Z,15.48
2022-10-05T08:39:20.194Z,15.43
2022-10-05T08:42:23.450Z,15.61
2022-10-05T08:45:45.128Z,15.40
2022-10-05T08:49:12.938Z,15.61
2022-10-05T08:52:04.453Z,15.74
2022-10-05T08:55:16.537Z,15.74
2022-10-05T08:58:31.886Z,15.94
2022-10-05T09:01:09.746Z,15.71
2022-10-05T09:04:17.779Z,15.69
2022-10-05T09:07:22.373Z,15.81
2022-10-05T09:10:51.675Z,16.08
2022-10-05T09:14:27.764Z,16.23
2022-10-05T09:17:14.516Z,16.17
2022-10-05T09:20:19.219Z,16.34
2022-10-05T09:23:01.947Z,16.58
2022-10-05T09:25:52.474Z,16.81
2022-10-05T09:28:41.907Z,16.82
2022-10-05T09:31:40.886Z,17.23
2022-10-05T09:34:53.834Z,17.31
2022-10-05T09:37:34.641Z,16.90
2022-10-05T09:41:10.837Z,17.14
2022-10-05T09:44:32.952Z,16.91
2022-10-05T09:47:53.997Z,17.09
2022-10-05T09:51:07.354Z,17.60
2022-10-05T09:54:25.448Z,17.89
2022-10-05T09:57:32.795Z,18.02
2022-10-05T10:00:16.841Z,17.54
2022-10-05T10:03:48.279Z,18.45
2022-10-05T10:06:56.304Z,17.54
2022-10-05T10:09:38.726Z,17.92
2022-10-05T10:12:31.359Z,17.56
2022-10-05T10:15:42.013Z,17.75
2022-10-05T10:19:20.681Z,18.05
2022-10-05T10:22:32.111Z,18.10
2022-10-05T10:25:28.728Z,18.39
2022-10-05T10:28:35.773Z,18.69
2022-10-05T10:31:25.128Z,18.48
2022-10-05T10:34:16.321Z,18.81
2022-10-05T10:37:07.597Z,18.23
2022-10-05T10:40:00.577Z,18.10
2022-10-05T10:42:43.404Z,18.34
2022-10-05T10:45:46.865Z,18.48
2022-10-05T10:48:55.928Z,19.16
2022-10-05T10:52:06.846Z,19.34
2022-10-05T10:55:06.763Z,18.71
2022-10-05T10:57:53.709Z,18.58
2022-10-05T11:00:49.894Z,19.32
2022-10-05T11:04:11.273Z,19.53
2022-10-05T11:07:05.676Z,19.87
2022-10-05T11:10:05.519Z,19.49
2022-10-05T11:13:21.823Z,19.16
2022-10-05T11:16:28.949Z,18.85
2022-10-05T11:19:40.208Z,19.23
2022-10-05T11:22:40.972Z,19.21
2022-10-05T11:25:50.359Z,19.31
2022-10-05T11:28:41.553Z,20.01
2022-10-05T11:31:44.882Z,19.82
2022-10-05T11:34:53.055Z,19.78
2022-10-05T11:38:02.336Z,20.01
2022-10-05T11:41:08.250Z,20.00
2022-10-05T11:44:38.893Z,20.21
2022-10-05T11:47:18.210Z,20.33
2022-10-05T11:49:56.755Z,20.58
2022-10-05T11:52:32.154Z,20.58
2022-10-05T11:55:27.850Z,20.25
2022-10-05T11:58:00.741Z,20.53
2022-10-05T12:00:37.863Z,20.79
2022-10-05T12:03:47.571Z,21.26
2022-10-05T12:06:49.375Z,21.12
2022-10-05T12:09:34.317Z,20.50
2022-10-05T12:12:14.972Z,20.43
2022-10-05T12:14:53.870Z,21.33
2022-10-05T12:17:31.310Z,21.01
2022-10-05T12:20:07.299Z,20.56
2022-10-05T12:22:42.906Z,20.62
2022-10-05T12:25:26.571Z,21.21
2022-10-05T12:28:00.139Z,21.05
2022-10-05T12:30:52.253Z,21.01
2022-10-05T12:33:26.100Z,21.04
2022-10-05T12:36:03.655Z,20.59
2022-10-05T12:38:39.683Z,20.76
2022-10-05T12:41:20.121Z,21.01
2022-10-05T12:44:03.595Z,21.09
2022-10-05T12:46:42.617Z,20.85
2022-10-05T12:49:51.500Z,21.06
2022-10-05T12:52:39.078Z,21.57
2022-10-05T12:55:16.401Z,21.92
2022-10-05T12:57:54.636Z,22.36
2022-10-05T13:00:23.707Z,22.15
2022-10-05T13:03:00.753Z,21.77
2022-10-05T13:05:38.790Z,21.89
2022-10-05T13:08:22.370Z,21.33
2022-10-05T13:11:01.765Z,21.80
2022-10-05T13:13:48.381Z,21.54
2022-10-05T13:16:30.664Z,22.27
2022-10-05T13:19:17.013Z,22.57
2022-10-05T13:22:22.773Z,22.09
2022-10-05T13:25:19.753Z,22.04
2022-10-05T13:27:57.373Z,21.99
2022-10-05T13:30:26.157Z,21.83
2022-10-05T13:33:01.101Z,21.92
2022-10-05T13:35:45.978Z,21.81
2022-10-05T13:38:30.727Z,21.75
2022-10-05T13:41:13.029Z,21.54
2022-10-05T13:43:49.845Z,21.80
2022-10-05T13:46:29.472Z,22.13
2022-10-05T13:49:12.980Z,21.89
2022-10-05T13:51:49.580Z,21.98
2022-10-05T13:54:27.249Z,21.85
2022-10-05T13:57:11.056Z,21.90
2022-10-05T13:59:47.905Z,22.39
2022-10-05T14:02:23.069Z,22.29
2022-10-05T14:05:05.282Z,21.73
2022-10-05T14:07:38.413Z,22.15
2022-10-05T14:10:14.989Z,22.17
2022-10-05T14:12:46.764Z,21.77
2022-10-05T14:15:23.074Z,21.48
2022-10-05T14:17:52.719Z,21.77
2022-10-05T14:20:25.813Z,22.44
2022-10-05T14:22:59.500Z,22.37
2022-10-05T14:25:30.218Z,21.85
2022-10-05T14:28:24.202Z,22.22
2022-10-05T14:30:59.537Z,22.04
2022-10-05T14:33:30.996Z,21.73
2022-10-05T14:36:00.665Z,22.09
2022-10-05T14:38:31.470Z,22.38
2022-10-05T14:41:18.881Z,22.47
2022-10-05T14:43:55.785Z,22.21
2022-10-05T14:46:32.760Z,22.58
2022-10-05T14:49:21.788Z,22.15
2022-10-05T14:51:51.381Z,21.79
2022-10-05T14:54:36.972Z,22.36
2022-10-05T14:57:16.687Z,22.79
2022-10-05T15:00:12.301Z,22.41
2022-10-05T15:03:17.579Z,22.63
2022-10-05T15:05:51.471Z,22.39
2022-10-05T15:08:48.184Z,21.94
2022-10-05T15:11:32.744Z,22.10
2022-10-05T15:14:03.920Z,21.92
2022-10-05T15:16:39.216Z,21.92
2022-10-05T15:19:20.980Z,22.21
2022-10-05T15:22:15.647Z,22.24
2022-10-05T15:24:56.083Z,22.04
2022-10-05T15:27:34.648Z,21.95
2022-10-05T15:30:14.209Z,21.69
2022-10-05T15:33:04.625Z,21.60
2022-10-05T15:35:54.744Z,21.34
2022-10-05T15:38:27.023Z,21.28
2022-10-05T15:41:01.200Z,21.03
2022-10-05T15:43:46.906Z,20.64
2022-10-05T15:46:23.475Z,20.67
2022-10-05T15:49:11.216Z,20.59
2022-10-05T15:51:54.340Z,20.45
2022-10-05T15:54:44.734Z,20.52
2022-10-05T15:57:24.983Z,20.26
2022-10-05T16:00:04.069Z,20.32
2022-10-05T16:02:42.915Z,20.16
2022-10-05T16:05:45.826Z,20.00
2022-10-05T16:08:55.552Z,20.23
2022-10-05T16:11:48.525Z,20.11
2022-10-05T16:14:40.698Z,20.00
2022-10-05T16:17:25.395Z,19.85
2022-10-05T16:20:14.603Z,19.81
2022-10-05T16:22:59.708Z,19.85
2022-10-05T16:25:43.979Z,19.51
2022-10-05T16:28:25.031Z,19.50
2022-10-05T16:31:02.691Z,19.55
2022-10-05T16:33:52.891Z,19.49
2022-10-05T16:36:36.425Z,19.62
2022-10-05T16:39:17.901Z,19.55
2022-10-05T16:42:00.863Z,19.47
2022-10-05T16:44:39.659Z,18.97
2022-10-05T16:47:34.244Z,18.81
2022-10-05T16:50:14.777Z,18.54
2022-10-05T16:52:51.718Z,18.50
2022-10-05T16:55:31.864Z,18.45
2022-10-05T16:58:02.971Z,18.19
2022-10-05T17:00:47.014Z,18.30
2022-10-05T17:03:27.095Z,18.24
2022-10-05T17:06:39.927Z,18.17
2022-10-05T17:09:25.227Z,18.10
2022-10-05T17:12:14.137Z,18.02
2022-10-05T17:15:00.758Z,18.05
2022-10-05T17:17:50.345Z,18.01
2022-10-05T17:20:42.982Z,17.98
2022-10-05T17:23:32.264Z,17.91
2022-10-05T17:26:17.634Z,17.81
2022-10-05T17:29:09.130Z,17.87
2022-10-05T17:32:11.916Z,17.90
2022-10-05T17:35:01.510Z,17.84
2022-10-05T17:37:38.390Z,17.89
2022-10-05T17:40:35.554Z,17.98
2022-10-05T17:43:25.299Z,17.84
2022-10-05T17:46:09.830Z,17.96
2022-10-05T17:48:45.323Z,18.08
2022-10-05T17:52:40.532Z,18.08
2022-10-05T17:56:02.857Z,18.09
2022-10-05T17:59:07.301Z,18.13
2022-10-05T18:01:39.384Z,17.98
2022-10-05T18:04:38.486Z,17.94
2022-10-05T18:07:25.480Z,17.95
2022-10-05T18:10:24.606Z,17.96
2022-10-05T18:13:35.049Z,17.89
2022-10-05T18:16:03.749Z,17.84
2022-10-05T18:18:59.564Z,17.80
2022-10-05T18:21:38.783Z,17.90
2022-10-05T18:24:53.297Z,17.95
2022-10-05T18:28:09.942Z,17.96
2022-10-05T18:30:57.837Z,17.81
2022-10-05T18:34:03.065Z,17.96
2022-10-05T18:37:00.422Z,17.84
2022-10-05T18:40:03.960Z,17.89
2022-10-05T18:42:40.382Z,17.95
2022-10-05T18:45:23.780Z,17.90
2022-10-05T18:48:09.588Z,17.83
2022-10-05T18:50:48.409Z,17.84
2022-10-05T18:53:29.930Z,18.00
2022-10-05T18:56:11.288Z,17.85
2022-10-05T18:58:53.219Z,17.87
2022-10-05T19:01:57.140Z,17.85
2022-10-05T19:04:38.408Z,17.80
2022-10-05T19:07:20.404Z,17.86
2022-10-05T19:10:11.898Z,17.85
2022-10-05T19:13:02.941Z,17.93
2022-10-05T19:15:45.538Z,17.88
2022-10-05T19:18:35.054Z,17.97
2022-10-05T19:21:18.688Z,17.85
2022-10-05T19:24:07.234Z,17.89
2022-10-05T19:26:57.437Z,18.03
2022-10-05T19:29:45.838Z,17.98
2022-10-05T19:32:25.580Z,17.97
2022-10-05T19:35:10.884Z,17.97
2022-10-05T19:37:50.239Z,18.11
2022-10-05T19:40:29.158Z,17.92
2022-10-05T19:43:30.691Z,17.93
2022-10-05T19:46:19.049Z,17.94
2022-10-05T19:48:51.792Z,18.00
2022-10-05T19:51:30.663Z,18.17
2022-10-05T19:54:07.549Z,17.99
2022-10-05T19:56:47.641Z,18.08
2022-10-05T19:59:21.922Z,17.93
2022-10-05T20:01:55.791Z,17.91
2022-10-05T20:04:37.208Z,17.96
2022-10-05T20:07:06.530Z,17.99
2022-10-05T20:09:52.403Z,17.94
2022-10-05T20:12:23.008Z,17.96
2022-10-05T20:15:26.673Z,17.92
2022-10-05T20:18:15.090Z,17.85
2022-10-05T20:20:47.098Z,18.00
2022-10-05T20:23:26.089Z,17.92
2022-10-05T20:26:12.329Z,17.94
2022-10-05T20:28:41.142Z,17.79
2022-10-05T20:31:09.689Z,17.86
2022-10-05T20:33:40.189Z,17.86
2022-10-05T20:36:09.051Z,17.84
2022-10-05T20:38:40.896Z,17.83
2022-10-05T20:41:10.306Z,17.82
2022-10-05T20:43:39.302Z,17.82
2022-10-05T20:46:08.889Z,17.91
2022-10-05T20:48:39.698Z,17.79
2022-10-05T20:51:08.650Z,17.79
2022-10-05T20:53:37.219Z,17.72
2022-10-05T20:56:06.349Z,17.78
2022-10-05T20:58:34.940Z,17.87
2022-10-05T21:01:19.938Z,17.79
2022-10-05T21:03:50.607Z,17.85
2022-10-05T21:06:21.446Z,17.84
2022-10-05T21:08:51.414Z,17.93
2022-10-05T21:11:20.348Z,17.85
2022-10-05T21:13:49.522Z,17.85
2022-10-05T21:16:20.293Z,17.87
2022-10-05T21:18:50.946Z,17.90
2022-10-05T21:21:20.546Z,17.97
2022-10-05T21:23:51.185Z,17.73
2022-10-05T21:26:19.434Z,17.56
2022-10-05T21:28:48.116Z,17.62
2022-10-05T21:31:16.720Z,17.48
2022-10-05T21:33:45.087Z,17.44
2022-10-05T21:36:15.560Z,17.59
2022-10-05T21:38:44.231Z,17.46
2022-10-05T21:41:12.752Z,17.41
2022-10-05T21:43:41.154Z,17.43
2022-10-05T21:46:11.516Z,17.17
2022-10-05T21:48:41.596Z,16.44
2022-10-05T21:51:13.581Z,16.22
2022-10-05T21:53:47.319Z,16.09
2022-10-05T21:56:19.325Z,15.92
2022-10-05T21:58:48.751Z,15.63
2022-10-05T22:01:22.388Z,15.42
2022-10-05T22:03:51.681Z,15.31
2022-10-05T22:06:20.198Z,15.27
2022-10-05T22:08:50.002Z,15.23
2022-10-05T22:11:19.319Z,15.22
2022-10-05T22:13:50.568Z,15.14
2022-10-05T22:16:22.497Z,15.18
2022-10-05T22:18:53.768Z,15.00
2022-10-05T22:21:22.795Z,15.13
2022-10-05T22:23:52.643Z,15.10
2022-10-05T22:26:23.757Z,15.24
2022-10-05T22:28:55.274Z,15.20
2022-10-05T22:31:23.947Z,15.16
2022-10-05T22:33:53.006Z,15.31
2022-10-05T22:36:22.105Z,15.35
2022-10-05T22:38:50.400Z,15.38
2022-10-05T22:41:21.224Z,15.51
2022-10-05T22:43:50.936Z,15.33
2022-10-05T22:46:20.251Z,15.27
2022-10-05T22:48:48.940Z,15.25
2022-10-05T22:51:17.552Z,15.20
2022-10-05T22:53:46.125Z,15.19
2022-10-05T22:56:15.978Z,15.39
2022-10-05T22:58:46.777Z,15.41
2022-10-05T23:01:17.950Z,15.22
2022-10-05T23:03:46.884Z,15.28
2022-10-05T23:06:19.580Z,15.38
2022-10-05T23:08:49.175Z,15.45
2022-10-05T23:11:21.584Z,15.40
2022-10-05T23:13:52.239Z,15.13
2022-10-05T23:16:24.495Z,15.32
2022-10-05T23:18:54.673Z,15.35
2022-10-05T23:21:26.638Z,15.31
2022-10-05T23:23:55.655Z,14.66
2022-10-05T23:26:26.812Z,14.26
2022-10-05T23:28:56.701Z,14.13
2022-10-05T23:31:27.455Z,13.62
2022-10-05T23:33:56.234Z,13.68
2022-10-05T23:36:27.891Z,13.60
2022-10-05T23:38:56.489Z,13.60
2022-10-05T23:41:25.445Z,13.49
2022-10-05T23:43:55.929Z,13.56
2022-10-05T23:46:26.293Z,13.65
2022-10-05T23:48:54.980Z,13.72
2022-10-05T23:51:23.689Z,13.83
2022-10-05T23:53:52.450Z,13.92
2022-10-05T23:56:21.001Z,13.72
2022-10-05T23:58:49.834Z,13.67
